Time;durP1;ratioP1;P1;durP2;ratioP2;P2;SDS_P1;SDS_P2;PMS_P1;PMS_P2;Temp;Humidity;BMP_temperature;BMP_pressure;BME280_temperature;BME280_humidity;BME280_pressure;Samples;Min_cycle;Max_cycle;Signal;HPM_P1;HPM_P2
2023/07/14 00:02:19;;;;;;;5.10;3.50;;;;;;;20.75;100.00;99575.63;1663747;86;21191;-65
2023/07/14 00:04:49;;;;;;;4.62;3.12;;;;;;;20.78;100.00;99577.84;1692430;85;21003;-67
2023/07/14 00:07:19;;;;;;;4.50;3.12;;;;;;;20.83;100.00;99572.28;1663712;84;21115;-63
2023/07/14 00:09:51;;;;;;;5.50;3.90;;;;;;;20.86;100.00;99570.31;1692231;85;21039;-63
2023/07/14 00:12:21;;;;;;;5.30;3.92;;;;;;;20.85;100.00;99563.08;1663532;86;21031;-63
2023/07/14 00:14:52;;;;;;;6.10;4.47;;;;;;;20.87;100.00;99559.45;1692026;84;21026;-63
2023/07/14 00:17:24;;;;;;;4.85;4.15;;;;;;;20.87;100.00;99560.84;1663908;84;21067;-64
2023/07/14 00:19:54;;;;;;;4.95;3.60;;;;;;;20.86;100.00;99563.36;1674985;85;21111;-64
2023/07/14 00:22:27;;;;;;;4.45;4.05;;;;;;;20.85;100.00;99569.48;1642660;86;21071;-64
2023/07/14 00:24:57;;;;;;;4.70;3.80;;;;;;;20.86;100.00;99567.53;1692221;83;21022;-63
2023/07/14 00:27:29;;;;;;;5.17;4.30;;;;;;;20.83;100.00;99561.98;1663740;86;21198;-64
2023/07/14 00:29:58;;;;;;;7.25;4.00;;;;;;;20.81;100.00;99560.03;1692323;85;21034;-63
2023/07/14 00:32:29;;;;;;;5.08;3.90;;;;;;;20.80;100.00;99560.28;1692169;83;21951;-63
2023/07/14 00:35:00;;;;;;;6.50;3.95;;;;;;;20.76;100.00;99558.63;1692293;84;21525;-65
2023/07/14 00:37:33;;;;;;;5.72;4.50;;;;;;;20.79;100.00;99548.88;1663878;86;21113;-63
2023/07/14 00:40:06;;;;;;;4.83;3.80;;;;;;;20.79;100.00;99541.92;1692378;83;21054;-64
2023/07/14 00:42:35;;;;;;;6.78;4.47;;;;;;;20.82;100.00;99539.98;1692194;85;21065;-65
2023/07/14 00:45:14;;;;;;;5.42;4.40;;;;;;;20.80;100.00;99538.02;1692333;83;21058;-64
2023/07/14 00:47:44;;;;;;;5.83;4.62;;;;;;;20.84;100.00;99532.18;1692329;85;21146;-66
2023/07/14 00:50:31;;;;;;;7.28;4.60;;;;;;;20.86;100.00;99532.16;1692244;84;21411;-66
2023/07/14 00:53:05;;;;;;;7.22;4.83;;;;;;;20.89;100.00;99529.36;1692272;84;21066;-64
2023/07/14 00:55:43;;;;;;;5.78;4.47;;;;;;;20.89;100.00;99536.33;1692460;83;21026;-66
2023/07/14 00:58:20;;;;;;;6.67;4.80;;;;;;;20.90;100.00;99535.20;1643171;86;21095;-66
2023/07/14 01:01:11;;;;;;;4.83;4.17;;;;;;;20.93;100.00;99527.67;1692607;85;21026;-65
2023/07/14 01:03:44;;;;;;;6.60;4.50;;;;;;;20.93;100.00;99526.28;1692271;85;21470;-64
2023/07/14 01:06:34;;;;;;;5.20;4.50;;;;;;;20.91;100.00;99534.09;1693796;84;21006;-64
2023/07/14 01:09:12;;;;;;;7.03;4.90;;;;;;;20.89;100.00;99533.55;1705478;84;21487;-66
2023/07/14 01:11:51;;;;;;;6.05;4.47;;;;;;;20.88;100.00;99531.88;1705492;84;21075;-65
2023/07/14 01:14:35;;;;;;;6.33;4.90;;;;;;;20.86;100.00;99531.33;1705443;84;21024;-66
2023/07/14 01:17:05;;;;;;;8.68;4.92;;;;;;;20.85;100.00;99522.70;1705613;84;21091;-66
2023/07/14 01:19:52;;;;;;;6.62;5.00;;;;;;;20.86;100.00;99523.81;1705526;84;21052;-66
2023/07/14 01:22:59;;;;;;;8.88;5.45;;;;;;;20.87;100.00;99519.91;1705578;84;21447;-65
2023/07/14 01:25:40;;;;;;;8.83;5.15;;;;;;;20.89;100.00;99519.06;1705479;83;21553;-65
2023/07/14 01:28:13;;;;;;;6.65;5.28;;;;;;;20.89;100.00;99514.05;1705578;84;21110;-65
2023/07/14 01:30:44;;;;;;;6.70;4.92;;;;;;;20.89;100.00;99514.05;1705661;84;21063;-67
2023/07/14 01:33:17;;;;;;;6.62;5.35;;;;;;;20.92;100.00;99515.43;1705425;84;21087;-66
2023/07/14 01:35:58;;;;;;;6.22;5.25;;;;;;;20.95;100.00;99516.25;1705635;84;21157;-65
2023/07/14 01:38:29;;;;;;;7.03;4.92;;;;;;;20.97;100.00;99525.14;1705431;84;21075;-64
2023/07/14 01:40:59;;;;;;;6.60;5.37;;;;;;;20.94;100.00;99525.16;1682265;84;21051;-65
2023/07/14 01:43:28;;;;;;;7.87;5.10;;;;;;;20.96;100.00;99530.44;1705560;84;21059;-66
2023/07/14 01:46:01;;;;;;;5.53;4.97;;;;;;;20.95;100.00;99533.78;1682204;84;21052;-66
2023/07/14 01:48:37;;;;;;;5.78;4.72;;;;;;;20.96;100.00;99541.58;1705602;84;21464;-66
2023/07/14 01:51:11;;;;;;;6.37;4.87;;;;;;;20.98;100.00;99548.53;1682010;84;21483;-66
2023/07/14 01:53:58;;;;;;;6.08;4.83;;;;;;;20.96;100.00;99547.16;1601835;88;21109;-66
2023/07/14 01:56:29;;;;;;;7.85;5.33;;;;;;;20.95;100.00;99553.28;1606671;87;21068;-66
2023/07/14 01:59:20;;;;;;;7.10;5.37;;;;;;;20.97;100.00;99555.22;1622599;88;21245;-67
2023/07/14 02:01:52;;;;;;;6.20;5.05;;;;;;;20.96;100.00;99543.80;1622310;88;21093;-66
2023/07/14 02:04:26;;;;;;;7.78;5.80;;;;;;;20.94;100.00;99544.66;1577360;88;21117;-67
2023/07/14 02:06:58;;;;;;;10.32;5.70;;;;;;;20.94;100.00;99535.47;1572192;90;21099;-66
2023/07/14 02:09:28;;;;;;;7.58;5.60;;;;;;;20.93;100.00;99537.98;1585357;90;21514;-67
2023/07/14 02:12:03;;;;;;;8.55;6.60;;;;;;;20.92;100.00;99537.14;1632128;84;21054;-66
2023/07/14 02:14:39;;;;;;;6.70;5.47;;;;;;;20.95;100.00;99540.75;1669123;84;21497;-66
2023/07/14 02:17:13;;;;;;;6.83;5.67;;;;;;;20.95;100.00;99540.75;1669355;86;21096;-66
2023/07/14 02:19:44;;;;;;;8.15;5.80;;;;;;;20.94;100.00;99548.83;1668009;86;21078;-66
2023/07/14 02:22:14;;;;;;;7.40;5.20;;;;;;;20.96;100.00;99548.55;1669173;85;21053;-64
2023/07/14 02:24:45;;;;;;;6.97;5.47;;;;;;;20.98;100.00;99548.53;1669110;86;21026;-67
2023/07/14 02:27:16;;;;;;;7.40;5.37;;;;;;;21.00;100.00;99554.64;1669115;86;21540;-65
2023/07/14 02:29:45;;;;;;;6.47;5.45;;;;;;;21.01;100.00;99551.30;1669090;84;21536;-66
2023/07/14 02:32:23;;;;;;;7.78;5.70;;;;;;;21.03;100.00;99561.59;1669162;86;21053;-66
2023/07/14 02:34:57;;;;;;;7.37;5.85;;;;;;;20.99;100.00;99564.13;1564971;90;21514;-66
2023/07/14 02:38:02;;;;;;;6.70;5.30;;;;;;;20.97;100.00;99568.31;1585322;90;21115;-67
2023/07/14 02:40:38;;;;;;;7.95;6.40;;;;;;;20.97;100.00;99566.36;1585477;90;21126;-68
2023/07/14 02:43:13;;;;;;;8.98;6.55;;;;;;;20.94;100.00;99562.76;1585326;90;21572;-68
2023/07/14 02:46:00;;;;;;;9.48;6.60;;;;;;;20.94;100.00;99562.76;1565450;90;21066;-66
2023/07/14 02:48:45;;;;;;;7.53;6.78;;;;;;;20.98;100.00;99561.63;1585508;89;21140;-66
2023/07/14 02:51:15;;;;;;;8.20;5.97;;;;;;;20.98;100.00;99568.03;1585270;90;21159;-67
2023/07/14 02:53:44;;;;;;;6.95;6.10;;;;;;;20.95;100.00;99564.42;1565529;90;21085;-67
2023/07/14 02:56:14;;;;;;;13.00;7.12;;;;;;;20.93;100.00;99565.27;1564982;90;21603;-68
2023/07/14 02:58:49;;;;;;;16.62;8.90;;;;;;;20.93;100.00;99572.23;1600508;86;21030;-65
2023/07/14 03:01:18;;;;;;;12.33;8.30;;;;;;;20.94;100.00;99569.72;1669300;86;21098;-65
2023/07/14 03:03:48;;;;;;;11.45;7.70;;;;;;;20.94;100.00;99573.06;1642415;86;21109;-65
2023/07/14 03:06:19;;;;;;;11.18;7.55;;;;;;;20.90;100.00;99568.63;1669232;86;21236;-66
2023/07/14 03:08:50;;;;;;;12.95;9.88;;;;;;;20.86;100.00;99566.97;1690157;83;21082;-65
2023/07/14 03:11:23;;;;;;;16.40;10.80;;;;;;;20.84;100.00;99564.20;1675015;85;21065;-66
2023/07/14 03:13:52;;;;;;;15.98;11.55;;;;;;;20.83;100.00;99564.76;1692181;85;21046;-65
2023/07/14 03:16:22;;;;;;;16.52;13.10;;;;;;;20.83;100.00;99572.28;1692418;85;21494;-65
2023/07/14 03:18:52;;;;;;;17.12;13.08;;;;;;;20.84;100.00;99573.95;1674714;85;21114;-65
2023/07/14 03:21:22;;;;;;;17.15;13.53;;;;;;;20.81;100.00;99578.13;1692384;85;21085;-64
2023/07/14 03:23:51;;;;;;;21.70;13.98;;;;;;;20.81;100.00;99569.78;1692397;85;21501;-66
2023/07/14 03:26:21;;;;;;;21.50;15.58;;;;;;;20.81;100.00;99572.56;1674604;85;21054;-65
2023/07/14 03:28:51;;;;;;;21.07;14.60;;;;;;;20.79;100.00;99566.97;1692327;83;21500;-66
2023/07/14 03:31:20;;;;;;;20.27;15.23;;;;;;;20.79;100.00;99568.37;1692322;85;21027;-65
2023/07/14 03:33:51;;;;;;;20.10;15.68;;;;;;;20.78;100.00;99566.70;1692382;84;21042;-66
2023/07/14 03:36:20;;;;;;;21.50;16.23;;;;;;;20.78;100.00;99570.88;1674874;85;21085;-66
2023/07/14 03:39:24;;;;;;;22.82;17.15;;;;;;;20.76;100.00;99573.95;1675549;85;21181;-65
2023/07/14 03:41:55;;;;;;;22.30;17.85;;;;;;;20.75;100.00;99577.02;1692316;85;21470;-64
2023/07/14 03:44:25;;;;;;;26.45;18.65;;;;;;;20.72;100.00;99572.85;1692212;85;21062;-65
2023/07/14 03:46:54;;;;;;;27.55;19.62;;;;;;;20.71;100.00;99578.70;1692383;85;21042;-65
2023/07/14 03:49:26;;;;;;;24.35;20.10;;;;;;;20.67;100.00;99580.39;1692382;84;21050;-64
2023/07/14 03:51:56;;;;;;;22.77;19.85;;;;;;;20.63;100.00;99582.08;1692127;85;21027;-65
2023/07/14 03:54:30;;;;;;;24.07;19.25;;;;;;;20.61;100.00;99594.88;1675806;85;21023;-65
2023/07/14 03:57:00;;;;;;;23.38;19.25;;;;;;;20.58;100.00;99595.45;1692564;85;21026;-64
2023/07/14 03:59:31;;;;;;;26.35;20.62;;;;;;;20.55;100.00;99598.24;1692297;85;21030;-67
2023/07/14 04:02:05;;;;;;;24.72;19.70;;;;;;;20.54;100.00;99603.53;1692205;84;21042;-66
2023/07/14 04:04:37;;;;;;;25.40;19.30;;;;;;;20.52;100.00;99600.20;1692176;85;20991;-66
2023/07/14 04:07:07;;;;;;;24.85;20.32;;;;;;;20.51;100.00;99594.36;1692107;84;21459;-66
2023/07/14 04:09:39;;;;;;;24.75;19.07;;;;;;;20.49;100.00;99602.72;1692309;85;21035;-65
2023/07/14 04:12:09;;;;;;;25.57;20.17;;;;;;;20.46;100.00;99602.72;1692317;85;21082;-66
2023/07/14 04:14:41;;;;;;;24.82;19.42;;;;;;;20.43;100.00;99604.67;1692250;84;21070;-66
2023/07/14 04:17:11;;;;;;;23.92;19.67;;;;;;;20.42;100.00;99604.41;1692301;85;21034;-67
2023/07/14 04:19:42;;;;;;;24.85;20.02;;;;;;;20.42;100.00;99611.92;1617404;88;21723;-67
2023/07/14 04:22:12;;;;;;;28.47;20.88;;;;;;;20.39;100.00;99617.48;1618001;88;21071;-66
2023/07/14 04:24:43;;;;;;;30.05;21.20;;;;;;;20.37;100.00;99623.86;1615417;87;21086;-67
2023/07/14 04:27:13;;;;;;;26.90;19.27;;;;;;;20.37;100.00;99621.08;1594283;89;21098;-66
2023/07/14 04:29:44;;;;;;;24.45;19.55;;;;;;;20.36;100.00;99620.80;1614965;89;21051;-66
2023/07/14 04:32:13;;;;;;;24.92;19.35;;;;;;;20.35;100.00;99629.43;1614932;89;21255;-67
2023/07/14 04:34:45;;;;;;;21.45;17.62;;;;;;;20.32;100.00;99625.27;1615236;89;21208;-67
2023/07/14 04:37:15;;;;;;;23.73;19.80;;;;;;;20.29;100.00;99625.82;1615187;89;21075;-67
2023/07/14 04:39:44;;;;;;;24.57;19.95;;;;;;;20.27;100.00;99622.48;1615054;89;21538;-66
2023/07/14 04:42:15;;;;;;;24.10;18.25;;;;;;;20.27;100.00;99630.83;1614961;87;21122;-66
2023/07/14 04:44:45;;;;;;;22.77;18.12;;;;;;;20.29;100.00;99634.17;1670165;83;21019;-65
2023/07/14 04:47:15;;;;;;;23.20;18.12;;;;;;;20.29;100.00;99641.13;1695085;83;21102;-65
2023/07/14 04:49:47;;;;;;;21.87;18.90;;;;;;;20.27;100.00;99648.91;1695377;85;20991;-66
2023/07/14 04:52:18;;;;;;;25.25;20.37;;;;;;;20.27;100.00;99650.30;1695007;85;21120;-66
2023/07/14 04:54:48;;;;;;;24.77;20.15;;;;;;;20.27;100.00;99654.48;1695242;85;21066;-65
2023/07/14 04:57:19;;;;;;;24.63;18.95;;;;;;;20.25;100.00;99665.05;1695070;83;21018;-65
2023/07/14 04:59:50;;;;;;;24.02;17.95;;;;;;;20.25;100.00;99667.83;1614966;88;21566;-66
2023/07/14 05:02:20;;;;;;;21.33;18.23;;;;;;;20.24;100.00;99673.12;1615068;87;21110;-65
2023/07/14 05:05:09;;;;;;;22.27;17.05;;;;;;;20.24;100.00;99682.86;1615103;89;21078;-67
2023/07/14 05:07:40;;;;;;;22.05;17.35;;;;;;;20.23;100.00;99675.63;1618792;87;21274;-66
2023/07/14 05:10:11;;;;;;;21.50;17.07;;;;;;;20.20;100.00;99671.45;1638823;87;21462;-66
2023/07/14 05:12:41;;;;;;;20.40;16.80;;;;;;;20.19;100.00;99675.91;1638700;87;21158;-67
2023/07/14 05:15:13;;;;;;;21.62;16.85;;;;;;;20.16;100.00;99676.46;1638770;87;21095;-67
2023/07/14 05:17:43;;;;;;;24.05;17.02;;;;;;;20.12;100.00;99682.27;1638593;87;21214;-68
2023/07/14 05:20:13;;;;;;;22.20;17.23;;;;;;;20.12;100.00;99687.83;1638603;87;21078;-67
2023/07/14 05:22:45;;;;;;;21.00;16.30;;;;;;;20.12;100.00;99687.83;1638788;87;21038;-67
2023/07/14 05:25:17;;;;;;;23.60;17.67;;;;;;;20.13;100.00;99693.67;1713561;83;21054;-67
2023/07/14 05:27:48;;;;;;;22.30;16.82;;;;;;;20.14;100.00;99694.79;1725755;83;21042;-66
2023/07/14 05:30:21;;;;;;;21.05;17.25;;;;;;;20.17;100.00;99703.16;1725991;83;21007;-66
2023/07/14 05:32:52;;;;;;;21.23;16.97;;;;;;;20.15;100.00;99705.36;1700148;83;21526;-65
2023/07/14 05:35:24;;;;;;;19.17;15.95;;;;;;;20.17;100.00;99709.56;1726076;83;21028;-68
2023/07/14 05:37:56;;;;;;;19.20;15.28;;;;;;;20.18;100.00;99719.58;1699768;83;21098;-66
2023/07/14 05:40:27;;;;;;;20.72;16.97;;;;;;;20.19;100.00;99718.47;1725863;83;21176;-67
2023/07/14 05:43:00;;;;;;;21.17;18.23;;;;;;;20.19;100.00;99715.69;1724415;83;21054;-69
2023/07/14 05:45:32;;;;;;;16.77;14.98;;;;;;;20.17;100.00;99722.08;1699448;83;21467;-68
2023/07/14 05:48:02;;;;;;;24.20;15.95;;;;;;;20.14;100.00;99729.56;1725749;83;21485;-67
2023/07/14 05:50:36;;;;;;;15.08;13.28;;;;;;;20.10;100.00;99732.61;1725893;83;21043;-67
2023/07/14 05:53:07;;;;;;;48.90;27.70;;;;;;;20.07;100.00;99751.25;1725962;83;21007;-67
2023/07/14 05:55:37;;;;;;;19.05;13.93;;;;;;;20.03;100.00;99760.41;1725914;83;21467;-66
2023/07/14 05:58:07;;;;;;;19.10;13.03;;;;;;;19.99;100.00;99753.18;1725809;83;21070;-66
2023/07/14 06:00:38;;;;;;;16.80;12.95;;;;;;;19.95;100.00;99754.28;1725948;83;21047;-67
2023/07/14 06:03:16;;;;;;;17.75;13.00;;;;;;;19.94;100.00;99749.00;1726132;83;21034;-66
2023/07/14 06:05:49;;;;;;;19.87;13.60;;;;;;;19.93;100.00;99741.77;1725786;83;21078;-65
2023/07/14 06:08:19;;;;;;;15.03;12.00;;;;;;;19.91;100.00;99749.00;1725768;83;21054;-65
2023/07/14 06:10:51;;;;;;;20.45;14.20;;;;;;;19.91;100.00;99749.55;1725792;83;21102;-66
2023/07/14 06:13:22;;;;;;;17.95;13.10;;;;;;;19.91;100.00;99755.11;1725946;83;21130;-65
2023/07/14 06:15:53;;;;;;;21.02;13.98;;;;;;;19.92;100.00;99758.17;1725871;83;21074;-65
2023/07/14 06:18:24;;;;;;;17.25;12.33;;;;;;;19.91;100.00;99753.17;1726002;83;21047;-66
2023/07/14 06:20:54;;;;;;;19.42;12.43;;;;;;;19.93;100.00;99758.45;1725843;83;21035;-67
2023/07/14 06:23:26;;;;;;;15.00;11.63;;;;;;;19.94;100.00;99760.95;1725974;83;21082;-67
2023/07/14 06:25:59;;;;;;;20.97;13.40;;;;;;;19.95;100.00;99761.80;1726249;83;21046;-66
2023/07/14 06:28:31;;;;;;;20.88;13.60;;;;;;;19.98;100.00;99761.80;1726325;83;21105;-66
2023/07/14 06:31:05;;;;;;;17.95;13.15;;;;;;;20.01;100.00;99766.25;1725885;83;21078;-66
2023/07/14 06:33:37;;;;;;;19.80;13.13;;;;;;;20.04;100.00;99764.87;1726405;83;21035;-66
2023/07/14 06:36:08;;;;;;;18.90;13.05;;;;;;;20.06;100.00;99762.64;1726171;83;21054;-68
2023/07/14 06:38:38;;;;;;;20.02;12.75;;;;;;;20.06;100.00;99766.27;1726098;83;21015;-65
2023/07/14 06:41:10;;;;;;;16.67;12.50;;;;;;;20.07;100.00;99760.98;1726085;83;21043;-66
2023/07/14 06:43:42;;;;;;;15.63;11.48;;;;;;;20.08;100.00;99761.81;1699139;83;21063;-66
2023/07/14 06:46:13;;;;;;;16.65;13.08;;;;;;;20.08;100.00;99766.82;1726102;83;21501;-68
2023/07/14 06:48:45;;;;;;;17.87;12.37;;;;;;;20.10;100.00;99751.25;1725974;83;21071;-66
2023/07/14 06:51:16;;;;;;;18.37;12.78;;;;;;;20.13;100.00;99755.70;1726026;83;21098;-66
2023/07/14 06:53:48;;;;;;;15.25;12.20;;;;;;;20.18;100.00;99766.03;1725895;83;21728;-67
2023/07/14 06:56:19;;;;;;;15.60;11.83;;;;;;;20.19;100.00;99774.09;1726347;83;21426;-67
2023/07/14 06:58:49;;;;;;;16.70;11.50;;;;;;;20.19;100.00;99787.17;1725908;83;21494;-67
2023/07/14 07:01:21;;;;;;;16.90;11.90;;;;;;;20.19;100.00;99789.41;1726210;83;21015;-68
2023/07/14 07:03:51;;;;;;;18.92;12.82;;;;;;;20.21;100.00;99797.47;1699857;83;21074;-66
2023/07/14 07:06:22;;;;;;;15.65;12.28;;;;;;;20.22;100.00;99793.58;1725916;83;21058;-68
2023/07/14 07:08:53;;;;;;;16.10;12.93;;;;;;;20.24;100.00;99794.14;1725825;83;21114;-67
2023/07/14 07:11:23;;;;;;;18.10;12.85;;;;;;;20.28;100.00;99795.81;1726047;83;21035;-67
2023/07/14 07:13:55;;;;;;;17.02;12.43;;;;;;;20.29;100.00;99806.66;1699970;83;21050;-69
2023/07/14 07:16:25;;;;;;;19.45;12.13;;;;;;;20.31;100.00;99810.00;1726160;83;21015;-67
2023/07/14 07:18:57;;;;;;;15.78;12.68;;;;;;;20.34;100.00;99822.53;1725901;83;21022;-67
2023/07/14 07:21:29;;;;;;;15.75;12.18;;;;;;;20.35;100.00;99823.64;1700226;83;21051;-68
2023/07/14 07:24:04;;;;;;;15.63;11.73;;;;;;;20.37;100.00;99829.77;1725895;83;21032;-67
2023/07/14 07:26:34;;;;;;;18.00;12.05;;;;;;;20.38;100.00;99830.05;1699390;83;21074;-68
2023/07/14 07:29:04;;;;;;;20.55;13.48;;;;;;;20.40;100.00;99833.42;1725865;83;21019;-67
2023/07/14 07:31:34;;;;;;;24.43;16.00;;;;;;;20.45;100.00;99833.98;1726127;83;21090;-68
2023/07/14 07:34:05;;;;;;;17.57;13.05;;;;;;;20.49;100.00;99832.31;1699796;83;21098;-68
2023/07/14 07:36:39;;;;;;;21.37;14.20;;;;;;;20.55;100.00;99838.17;1726097;83;21075;-67
2023/07/14 07:39:09;;;;;;;23.07;13.78;;;;;;;20.60;100.00;99841.51;1725920;83;21110;-68
2023/07/14 07:41:40;;;;;;;18.15;12.58;;;;;;;20.65;100.00;99849.30;1700210;82;21042;-70
2023/07/14 07:44:11;;;;;;;16.77;12.85;;;;;;;20.69;100.00;99853.77;1707845;83;21549;-69
2023/07/14 07:46:44;;;;;;;16.95;12.10;;;;;;;20.73;100.00;99859.89;1749682;82;21133;-67
2023/07/14 07:49:15;;;;;;;22.00;12.60;;;;;;;20.77;99.09;99865.73;1728587;82;21030;-70
2023/07/14 07:51:46;;;;;;;16.70;10.70;;;;;;;20.80;97.05;99872.14;1755648;82;21541;-69
2023/07/14 07:54:17;;;;;;;20.97;11.90;;;;;;;20.85;95.85;99877.75;1755870;82;21075;-68
2023/07/14 07:56:48;;;;;;;17.60;11.73;;;;;;;20.88;95.16;99884.15;1755898;82;21031;-67
2023/07/14 07:59:19;;;;;;;17.77;11.12;;;;;;;20.94;94.91;99895.57;1755937;82;21035;-69
2023/07/14 08:01:50;;;;;;;17.87;11.12;;;;;;;20.97;93.77;99892.23;1665540;86;21074;-72
2023/07/14 08:04:19;;;;;;;13.98;10.03;;;;;;;21.03;93.56;99893.06;1634841;87;21664;-72
2023/07/14 08:06:48;;;;;;;14.00;9.15;;;;;;;21.09;93.37;99891.95;1622471;88;21511;-65
2023/07/14 08:09:19;;;;;;;12.82;9.03;;;;;;;21.15;92.05;99895.01;1618326;88;21090;-71
2023/07/14 08:11:48;;;;;;;12.58;9.20;;;;;;;21.19;91.37;99894.16;1614603;89;21137;-68
2023/07/14 08:14:19;;;;;;;22.45;11.45;;;;;;;21.28;91.31;99897.81;1614348;89;21157;-72
2023/07/14 08:16:48;;;;;;;15.18;9.90;;;;;;;21.35;90.62;99890.00;1614777;88;21086;-73
2023/07/14 08:19:18;;;;;;;10.93;8.95;;;;;;;21.44;90.49;99891.09;1635416;88;21074;-71
2023/07/14 08:21:48;;;;;;;13.60;8.88;;;;;;;21.61;90.02;99890.80;1635291;88;21511;-69
2023/07/14 08:24:17;;;;;;;14.10;8.80;;;;;;;21.79;89.73;99884.05;1635255;88;22113;-71
2023/07/14 08:26:47;;;;;;;13.22;9.65;;;;;;;21.92;87.75;99883.17;1693567;83;21039;-71
2023/07/14 08:29:17;;;;;;;12.28;8.18;;;;;;;22.01;86.75;99880.06;1669576;86;21256;-70
2023/07/14 08:31:47;;;;;;;13.95;7.90;;;;;;;22.09;85.20;99885.08;1669679;86;21114;-69
2023/07/14 08:34:16;;;;;;;12.15;8.10;;;;;;;22.21;84.03;99882.81;1669768;86;21483;-70
2023/07/14 08:36:48;;;;;;;9.85;7.17;;;;;;;22.40;83.62;99881.03;1669456;86;21095;-71
2023/07/14 08:39:17;;;;;;;11.03;6.78;;;;;;;22.63;81.23;99891.21;1669423;86;21552;-70
2023/07/14 08:41:46;;;;;;;9.53;6.25;;;;;;;22.78;77.13;99887.78;1669506;86;21525;-71
2023/07/14 08:44:21;;;;;;;7.55;5.87;;;;;;;22.92;77.49;99888.55;1620513;86;21458;-71
2023/07/14 08:47:06;;;;;;;9.00;6.62;;;;;;;22.98;75.39;99891.00;1669399;86;21181;-71
2023/07/14 08:49:44;;;;;;;15.88;6.53;;;;;;;23.01;73.05;99891.81;1669511;86;21538;-72
2023/07/14 08:52:35;;;;;;;9.80;6.55;;;;;;;23.04;72.08;99891.23;1670528;86;21103;-71
2023/07/14 08:55:19;;;;;;;7.08;5.50;;;;;;;23.15;72.20;99891.14;1724290;82;21029;-71
2023/07/14 08:58:00;;;;;;;10.95;6.20;;;;;;;23.31;72.30;99896.30;1698257;83;21045;-70
2023/07/14 09:00:35;;;;;;;9.93;6.05;;;;;;;23.43;68.69;99902.92;1724046;82;21105;-72
2023/07/14 09:03:37;;;;;;;12.05;6.47;;;;;;;23.54;70.54;99903.09;1724088;83;20998;-71
2023/07/14 09:06:33;;;;;;;9.53;6.42;;;;;;;23.64;69.96;99905.80;1724167;83;21033;-70
2023/07/14 09:09:03;;;;;;;10.25;6.17;;;;;;;23.80;68.62;99907.03;1721773;83;21050;-68
2023/07/14 09:11:53;;;;;;;9.63;5.87;;;;;;;24.01;69.67;99907.05;1714613;83;21411;-68
2023/07/14 09:14:56;;;;;;;15.18;13.48;;;;;;;24.21;68.69;99906.83;1694302;83;21122;-69
2023/07/14 09:17:49;;;;;;;10.50;6.20;;;;;;;24.40;64.81;99892.05;1714362;84;21050;-70
2023/07/14 09:20:37;;;;;;;8.15;5.80;;;;;;;24.48;61.35;99896.97;1714347;84;21019;-70
2023/07/14 09:23:28;;;;;;;9.35;5.72;;;;;;;24.44;63.56;99893.11;1714435;82;21043;-70
2023/07/14 09:26:26;;;;;;;7.90;5.40;;;;;;;24.45;65.80;99889.17;1714172;84;21029;-70
2023/07/14 09:28:57;;;;;;;6.37;5.08;;;;;;;24.58;66.07;99878.05;1714227;82;21061;-71
2023/07/14 09:31:51;;;;;;;6.58;5.28;;;;;;;24.78;65.93;99876.92;1714108;84;21089;-71
2023/07/14 09:34:37;;;;;;;6.08;4.67;;;;;;;24.89;63.39;99879.83;1714292;84;21117;-72
2023/07/14 09:37:18;;;;;;;6.40;5.03;;;;;;;24.98;60.93;99875.79;1714727;84;21097;-71
2023/07/14 09:39:47;;;;;;;11.65;5.35;;;;;;;25.05;60.50;99880.44;1714302;84;21047;-69
2023/07/14 09:42:26;;;;;;;7.92;4.92;;;;;;;25.16;61.43;99881.09;1714428;84;21513;-70
2023/07/14 09:44:59;;;;;;;9.90;5.53;;;;;;;25.21;59.40;99888.02;1712118;83;21058;-72
2023/07/14 09:47:28;;;;;;;6.72;5.28;;;;;;;25.30;60.31;99886.16;1714335;82;21149;-70
2023/07/14 09:49:59;;;;;;;7.42;4.75;;;;;;;25.33;60.07;99889.76;1714328;84;21512;-69
2023/07/14 09:52:29;;;;;;;7.03;4.67;;;;;;;25.38;60.27;99886.05;1699347;82;21531;-69
2023/07/14 09:54:59;;;;;;;9.00;4.80;;;;;;;25.46;60.28;99888.98;1691926;84;21034;-70
2023/07/14 09:57:32;;;;;;;7.08;4.62;;;;;;;25.55;57.91;99888.53;1643007;86;21107;-69
2023/07/14 10:00:13;;;;;;;7.85;4.72;;;;;;;25.64;57.58;99890.05;1691417;84;21058;-71
2023/07/14 10:02:38;;;;;;;9.83;8.00;;;;;;;25.71;56.55;99888.27;1691484;85;21423;-71
2023/07/14 10:05:34;;;;;;;11.18;7.45;;;;;;;25.77;56.94;99894.04;1692256;84;21536;-70
2023/07/14 10:08:05;;;;;;;6.83;4.47;;;;;;;25.82;55.01;99889.73;1663506;86;21050;-69
2023/07/14 10:10:42;;;;;;;9.05;4.42;;;;;;;25.87;56.65;99893.83;1701741;84;21091;-69
2023/07/14 10:13:26;;;;;;;8.13;4.37;;;;;;;25.89;56.72;99900.80;1682362;84;21538;-71
2023/07/14 10:15:58;;;;;;;9.15;4.60;;;;;;;25.91;55.19;99896.28;1705423;84;21087;-72
2023/07/14 10:18:27;;;;;;;6.35;4.70;;;;;;;25.96;55.54;99896.17;1705317;84;21091;-73
2023/07/14 10:21:06;;;;;;;5.92;4.30;;;;;;;26.00;56.34;99901.99;1681838;84;21480;-72
2023/07/14 10:23:37;;;;;;;5.75;4.17;;;;;;;26.06;54.96;99897.97;1705470;84;21071;-71
2023/07/14 10:26:07;;;;;;;6.60;4.20;;;;;;;26.08;54.44;99895.11;1705268;84;21079;-71
2023/07/14 10:28:38;;;;;;;6.22;4.25;;;;;;;26.06;54.77;99900.77;1705159;83;21083;-71
2023/07/14 10:31:15;;;;;;;5.35;3.70;;;;;;;26.03;54.45;99907.02;1705315;84;21051;-73
2023/07/14 10:34:06;;;;;;;5.28;4.00;;;;;;;25.98;52.45;99899.50;1705311;83;21479;-71
2023/07/14 10:36:38;;;;;;;5.50;3.92;;;;;;;25.95;53.74;99900.13;1685019;84;21461;-72
2023/07/14 10:39:30;;;;;;;6.05;4.12;;;;;;;25.89;53.02;99906.98;1705401;84;21067;-73
2023/07/14 10:42:00;;;;;;;7.37;4.17;;;;;;;25.84;53.22;99907.09;1695461;84;21040;-72
2023/07/14 10:44:34;;;;;;;6.33;3.90;;;;;;;25.85;52.90;99904.54;1681765;84;21193;-72
2023/07/14 10:47:09;;;;;;;6.33;3.70;;;;;;;25.86;51.25;99904.80;1705227;84;21515;-72
2023/07/14 10:49:46;;;;;;;6.78;4.70;;;;;;;25.89;51.48;99912.59;1705227;84;21529;-72
2023/07/14 10:52:28;;;;;;;5.15;3.52;;;;;;;25.84;51.20;99905.69;1721874;83;21048;-72
2023/07/14 10:55:06;;;;;;;4.10;3.40;;;;;;;25.74;50.23;99902.51;1734318;83;21108;-72
2023/07/14 10:57:47;;;;;;;4.58;3.62;;;;;;;25.70;50.04;99902.87;1687918;83;21554;-72
2023/07/14 11:00:28;;;;;;;5.55;3.30;;;;;;;25.74;51.16;99911.50;1734697;83;21544;-73
2023/07/14 11:03:29;;;;;;;4.65;3.10;;;;;;;25.73;49.56;99903.65;1734794;82;21134;-73
2023/07/14 11:06:21;;;;;;;3.98;3.02;;;;;;;25.79;50.83;99904.38;1729267;83;21000;-72
2023/07/14 11:08:53;;;;;;;3.47;2.85;;;;;;;25.79;48.06;99911.40;1734498;83;21620;-71
2023/07/14 11:11:52;;;;;;;4.15;2.37;;;;;;;25.80;48.22;99910.26;1701984;82;21158;-73
2023/07/14 11:14:48;;;;;;;8.68;3.08;;;;;;;25.85;47.85;99908.75;1692134;85;21108;-74
2023/07/14 11:17:49;;;;;;;4.97;2.58;;;;;;;25.91;47.15;99907.50;1646404;84;21098;-73
2023/07/14 11:20:33;;;;;;;4.75;2.20;;;;;;;25.96;47.10;99909.37;1692108;85;21496;-72
2023/07/14 11:23:14;;;;;;;3.60;2.67;;;;;;;25.96;45.86;99913.02;1692218;83;21641;-71
2023/07/14 11:25:49;;;;;;;6.78;3.17;;;;;;;25.92;46.48;99907.77;1664880;85;21103;-72
2023/07/14 11:28:52;;;;;;;6.20;3.00;;;;;;;25.89;46.97;99912.03;1677969;85;21076;-72
2023/07/14 11:31:31;;;;;;;4.10;2.67;;;;;;;25.85;45.73;99907.34;1692272;85;21096;-71
2023/07/14 11:34:37;;;;;;;4.75;3.35;;;;;;;25.84;46.98;99909.32;1692033;85;21013;-71
2023/07/14 11:37:24;;;;;;;4.80;3.20;;;;;;;25.76;46.43;99907.81;1692196;83;21071;-72
2023/07/14 11:39:57;;;;;;;5.17;3.10;;;;;;;25.67;47.01;99904.06;1692176;85;21117;-69
2023/07/14 11:42:34;;;;;;;5.65;3.10;;;;;;;25.59;47.31;99899.39;1692164;83;21037;-70
2023/07/14 11:45:12;;;;;;;4.72;2.83;;;;;;;25.53;48.35;99903.44;1691879;83;21045;-72
2023/07/14 11:47:43;;;;;;;5.08;3.02;;;;;;;25.48;47.50;99901.30;1692100;85;21009;-71
2023/07/14 11:50:23;;;;;;;4.87;3.20;;;;;;;25.44;47.60;99902.48;1692254;85;21021;-70
2023/07/14 11:53:11;;;;;;;4.40;2.58;;;;;;;25.40;47.57;99904.24;1711708;83;21321;-72
2023/07/14 11:55:41;;;;;;;6.70;2.92;;;;;;;25.38;47.73;99905.12;1719526;83;21023;-69